Time;durP1;ratioP1;P1;durP2;ratioP2;P2;SDS_P1;SDS_P2;PMS_P1;PMS_P2;Temp;Humidity;BMP_temperature;BMP_pressure;BME280_temperature;BME280_humidity;BME280_pressure;Samples;Min_cycle;Max_cycle;Signal;HPM_P1;HPM_P2
2022/12/04 00:02:09;;;;;;;22.48;12.48;;;0.80;99.90;;;;;;5073500;28;20048;-63
2022/12/04 00:04:36;;;;;;;25.92;13.85;;;0.80;99.90;;;;;;5074191;28;20102;-62
2022/12/04 00:07:03;;;;;;;25.00;12.30;;;0.80;99.90;;;;;;5071460;28;20056;-63
2022/12/04 00:09:30;;;;;;;27.83;13.50;;;0.80;99.90;;;;;;5074219;28;20556;-62
2022/12/04 00:11:58;;;;;;;27.75;14.63;;;0.80;99.90;;;;;;5073119;28;20049;-62
2022/12/04 00:14:25;;;;;;;27.08;14.18;;;0.80;99.90;;;;;;5072088;28;20106;-62
2022/12/04 00:16:52;;;;;;;24.20;13.07;;;0.80;99.90;;;;;;5074242;28;20051;-62
2022/12/04 00:19:19;;;;;;;25.95;12.20;;;0.80;99.90;;;;;;5074105;28;20048;-62
2022/12/04 00:21:45;;;;;;;27.98;13.60;;;0.80;99.90;;;;;;5072264;28;20102;-63
2022/12/04 00:24:13;;;;;;;26.13;13.00;;;0.80;99.90;;;;;;5071525;28;20048;-62
2022/12/04 00:26:39;;;;;;;28.70;14.73;;;0.90;99.90;;;;;;5073675;28;20036;-62
2022/12/04 00:29:08;;;;;;;25.60;13.27;;;0.80;99.90;;;;;;5073361;28;20059;-63
2022/12/04 00:31:35;;;;;;;30.05;15.30;;;0.80;99.90;;;;;;5070382;28;20496;-62
2022/12/04 00:34:02;;;;;;;25.83;14.15;;;0.70;99.90;;;;;;5072191;28;20052;-62
2022/12/04 00:36:30;;;;;;;29.25;14.63;;;0.80;99.90;;;;;;5073308;28;20094;-63
2022/12/04 00:38:59;;;;;;;26.83;13.63;;;0.70;99.90;;;;;;5073328;28;20055;-63
2022/12/04 00:41:27;;;;;;;23.00;13.40;;;0.70;99.90;;;;;;5071736;28;20044;-63
2022/12/04 00:43:54;;;;;;;25.90;13.88;;;0.70;99.90;;;;;;5073043;28;20052;-63
2022/12/04 00:46:23;;;;;;;24.90;13.48;;;0.60;99.90;;;;;;5072236;28;20466;-63
2022/12/04 00:48:51;;;;;;;30.50;15.13;;;0.60;99.90;;;;;;5072639;28;20049;-62
2022/12/04 00:51:20;;;;;;;27.98;14.63;;;0.70;99.90;;;;;;5072254;28;20381;-63
2022/12/04 00:53:47;;;;;;;27.23;13.80;;;0.70;99.90;;;;;;5072838;28;20067;-62
2022/12/04 00:56:16;;;;;;;24.48;13.55;;;0.60;99.90;;;;;;5072751;28;20040;-62
2022/12/04 00:58:43;;;;;;;27.17;14.20;;;0.60;99.90;;;;;;5069541;28;20045;-62
2022/12/04 01:01:12;;;;;;;29.30;16.05;;;0.70;99.90;;;;;;5072120;28;20102;-63
2022/12/04 01:03:42;;;;;;;26.27;14.13;;;0.50;99.90;;;;;;5072139;28;20476;-63
2022/12/04 01:06:18;;;;;;;28.35;15.75;;;0.50;99.90;;;;;;5070090;28;20053;-63
2022/12/04 01:08:45;;;;;;;27.83;15.45;;;0.50;99.90;;;;;;5072993;28;20135;-62
2022/12/04 01:11:12;;;;;;;27.45;14.50;;;0.40;99.90;;;;;;5070886;28;20044;-63
2022/12/04 01:13:39;;;;;;;28.83;13.75;;;0.40;99.90;;;;;;5072225;28;20045;-63
2022/12/04 01:16:06;;;;;;;31.50;14.48;;;0.30;99.90;;;;;;5072700;28;20048;-63
2022/12/04 01:18:33;;;;;;;32.50;17.63;;;0.30;99.90;;;;;;5071014;28;20404;-63
2022/12/04 01:21:01;;;;;;;30.58;15.43;;;0.20;99.90;;;;;;5070638;28;20045;-63
2022/12/04 01:23:28;;;;;;;30.95;13.98;;;0.10;99.90;;;;;;5071633;28;20414;-63
2022/12/04 01:25:56;;;;;;;31.13;15.38;;;0.10;99.90;;;;;;5072760;28;20059;-63
2022/12/04 01:28:25;;;;;;;37.83;16.77;;;0.10;99.90;;;;;;5072284;28;20041;-63
2022/12/04 01:31:00;;;;;;;32.47;16.70;;;0.00;99.90;;;;;;5070955;28;20070;-63
2022/12/04 01:33:27;;;;;;;31.23;15.77;;;0.20;99.90;;;;;;5071135;28;20051;-63
2022/12/04 01:35:54;;;;;;;32.97;16.65;;;-0.10;99.90;;;;;;5072590;28;20405;-63
2022/12/04 01:38:23;;;;;;;32.17;16.10;;;-0.10;99.90;;;;;;5071699;28;20045;-63
2022/12/04 01:40:50;;;;;;;33.92;16.85;;;0.00;99.90;;;;;;5071287;28;20106;-63
2022/12/04 01:43:18;;;;;;;30.45;15.63;;;0.00;99.90;;;;;;5071250;28;20087;-63
2022/12/04 01:45:46;;;;;;;34.78;17.58;;;0.00;99.90;;;;;;5071679;28;20381;-63
2022/12/04 01:48:18;;;;;;;34.78;17.23;;;0.10;99.90;;;;;;5072206;28;20044;-63
2022/12/04 01:50:47;;;;;;;36.03;17.52;;;0.10;99.90;;;;;;5071360;28;20056;-63
2022/12/04 01:53:15;;;;;;;31.17;15.15;;;0.10;99.90;;;;;;5070528;28;20392;-63
2022/12/04 01:55:44;;;;;;;32.47;15.35;;;0.10;99.90;;;;;;5070806;28;20049;-63
2022/12/04 01:58:12;;;;;;;28.23;15.32;;;0.10;99.90;;;;;;5072136;28;20045;-63
2022/12/04 02:00:39;;;;;;;35.75;16.00;;;0.10;99.90;;;;;;5071552;28;20040;-63
2022/12/04 02:03:06;;;;;;;32.92;18.02;;;0.20;99.90;;;;;;5071229;28;20480;-63
2022/12/04 02:05:33;;;;;;;28.15;15.90;;;0.20;99.90;;;;;;5071118;28;20052;-63
2022/12/04 02:08:04;;;;;;;32.25;16.95;;;0.20;99.90;;;;;;5070740;28;20074;-64
2022/12/04 02:10:37;;;;;;;27.42;15.10;;;0.20;99.90;;;;;;5069792;28;20048;-63
2022/12/04 02:13:12;;;;;;;34.58;17.30;;;0.20;99.90;;;;;;5071475;28;20507;-63
2022/12/04 02:15:45;;;;;;;31.88;16.58;;;0.20;99.90;;;;;;5070884;28;20063;-63
2022/12/04 02:18:19;;;;;;;32.05;16.02;;;0.20;99.90;;;;;;5071016;28;20480;-63
2022/12/04 02:20:52;;;;;;;32.83;16.15;;;0.20;99.90;;;;;;5070210;28;20061;-63
2022/12/04 02:23:36;;;;;;;33.58;15.95;;;0.20;99.90;;;;;;5071704;28;20584;-63
2022/12/04 02:26:15;;;;;;;32.97;15.48;;;0.30;99.90;;;;;;5072052;28;20053;-63
2022/12/04 02:28:49;;;;;;;31.88;16.35;;;0.20;99.90;;;;;;5073888;28;20495;-63
2022/12/04 02:31:21;;;;;;;31.55;16.75;;;0.20;99.90;;;;;;5074908;28;20048;-62
2022/12/04 02:33:55;;;;;;;33.88;17.20;;;0.20;99.90;;;;;;5074846;28;20051;-63
2022/12/04 02:36:25;;;;;;;33.75;17.20;;;0.20;99.90;;;;;;5074875;28;20114;-63
2022/12/04 02:38:55;;;;;;;34.63;16.63;;;0.20;99.90;;;;;;5075670;28;20481;-62
2022/12/04 02:41:25;;;;;;;34.15;17.45;;;0.20;99.90;;;;;;5075183;28;20496;-62
2022/12/04 02:43:58;;;;;;;34.22;17.75;;;0.20;99.90;;;;;;5075094;28;20439;-62
2022/12/04 02:46:31;;;;;;;35.33;18.75;;;0.20;99.90;;;;;;5075801;28;20056;-62
2022/12/04 02:49:01;;;;;;;37.90;18.23;;;0.20;99.90;;;;;;5075000;28;20040;-62
2022/12/04 02:51:34;;;;;;;27.38;16.02;;;0.20;99.90;;;;;;5075625;28;20373;-63
2022/12/04 02:54:09;;;;;;;35.90;19.17;;;0.10;99.90;;;;;;5075259;28;20048;-62
2022/12/04 02:56:40;;;;;;;35.35;18.40;;;0.10;99.90;;;;;;5074705;28;20075;-63
2022/12/04 02:59:12;;;;;;;34.65;18.58;;;0.10;99.90;;;;;;5075608;28;20045;-62
2022/12/04 03:01:44;;;;;;;37.53;19.08;;;0.10;99.90;;;;;;5072753;28;20526;-62
2022/12/04 03:04:16;;;;;;;37.63;19.95;;;0.10;99.90;;;;;;5073488;28;20049;-62
2022/12/04 03:06:45;;;;;;;35.47;18.85;;;0.10;99.90;;;;;;5075180;28;20049;-62
2022/12/04 03:09:17;;;;;;;36.85;20.75;;;0.10;99.90;;;;;;5074174;28;20048;-62
2022/12/04 03:12:00;;;;;;;35.45;20.02;;;0.10;99.90;;;;;;5073696;28;20508;-62
2022/12/04 03:14:32;;;;;;;44.45;20.38;;;0.10;99.90;;;;;;5073653;28;20044;-62
2022/12/04 03:17:03;;;;;;;39.75;20.70;;;0.10;99.90;;;;;;5073182;28;20408;-62
2022/12/04 03:19:36;;;;;;;37.55;19.00;;;0.10;99.90;;;;;;5074828;28;20090;-62
2022/12/04 03:22:08;;;;;;;37.20;19.63;;;0.10;99.90;;;;;;5073988;28;20052;-62
2022/12/04 03:24:38;;;;;;;41.40;21.38;;;0.10;99.90;;;;;;5072786;28;20049;-62
2022/12/04 03:27:12;;;;;;;38.22;20.90;;;0.10;99.90;;;;;;5073356;28;20504;-63
2022/12/04 03:29:44;;;;;;;42.00;20.60;;;0.10;99.90;;;;;;5074663;28;20420;-63
2022/12/04 03:32:14;;;;;;;39.80;20.42;;;0.10;99.90;;;;;;5074424;28;20518;-63
2022/12/04 03:34:51;;;;;;;39.42;20.42;;;0.10;99.90;;;;;;5073363;28;20052;-64
2022/12/04 03:37:23;;;;;;;46.38;22.88;;;0.10;99.90;;;;;;5074044;28;20393;-64
2022/12/04 03:39:56;;;;;;;39.30;20.38;;;0.00;99.90;;;;;;5073477;28;20048;-63
2022/12/04 03:42:27;;;;;;;42.13;21.35;;;0.10;99.90;;;;;;5071422;28;20090;-63
2022/12/04 03:45:01;;;;;;;37.15;20.88;;;0.00;99.90;;;;;;5073464;28;20114;-63
2022/12/04 03:47:34;;;;;;;43.53;21.75;;;0.10;99.90;;;;;;5074348;28;20049;-63
2022/12/04 03:50:06;;;;;;;37.42;20.05;;;0.10;99.90;;;;;;5074409;28;20412;-63
2022/12/04 03:52:41;;;;;;;40.47;20.35;;;0.10;99.90;;;;;;5072707;28;20530;-63
2022/12/04 03:55:13;;;;;;;44.80;21.95;;;0.10;99.90;;;;;;5073748;28;20509;-63
2022/12/04 03:57:44;;;;;;;39.80;22.20;;;0.00;99.90;;;;;;5073270;28;20056;-63
2022/12/04 04:00:15;;;;;;;40.85;21.17;;;0.10;99.90;;;;;;5072559;28;20055;-63
2022/12/04 04:02:48;;;;;;;40.92;22.13;;;0.10;99.90;;;;;;5071690;28;20049;-63
2022/12/04 04:05:16;;;;;;;41.88;21.23;;;0.10;99.90;;;;;;5071984;28;20045;-63
2022/12/04 04:07:48;;;;;;;37.33;20.10;;;0.10;99.90;;;;;;5074291;28;20055;-63
2022/12/04 04:10:17;;;;;;;40.25;21.20;;;0.10;99.90;;;;;;5073911;28;20528;-62
2022/12/04 04:24:13;;;;;;;41.35;21.20;;;0.00;99.90;;;;;;5073658;28;20049;-63
2022/12/04 04:24:21;;;;;;;41.60;21.67;;;0.00;99.90;;;;;;5071391;28;20102;-63
2022/12/04 04:26:49;;;;;;;44.45;21.73;;;0.00;99.90;;;;;;5073216;28;20451;-63
2022/12/04 04:29:16;;;;;;;42.22;22.08;;;0.00;99.90;;;;;;5073851;28;20094;-63
2022/12/04 04:31:51;;;;;;;41.80;20.77;;;0.00;99.90;;;;;;5073802;28;20122;-63
2022/12/04 04:34:22;;;;;;;39.28;21.17;;;0.00;99.90;;;;;;5073101;28;20045;-63
2022/12/04 04:36:54;;;;;;;;;;;0.00;99.90;;;;;;5072826;28;20114;-63
2022/12/04 04:39:29;;;;;;;41.17;21.05;;;0.80;99.90;;;;;;5072524;28;19947;-63
2022/12/04 04:42:02;;;;;;;46.65;21.33;;;-0.10;99.90;;;;;;5071836;28;20060;-63
2022/12/04 04:44:36;;;;;;;47.08;22.00;;;-0.10;99.90;;;;;;5073237;28;20049;-63
2022/12/04 04:47:11;;;;;;;41.00;20.58;;;0.00;99.90;;;;;;5072173;28;20488;-63
2022/12/04 04:49:39;;;;;;;46.08;22.60;;;0.00;99.90;;;;;;5072291;28;20098;-63
2022/12/04 04:52:07;;;;;;;41.28;21.75;;;0.00;99.90;;;;;;5073278;28;20071;-63
2022/12/04 04:54:37;;;;;;;48.60;23.98;;;0.00;99.90;;;;;;5071660;28;20052;-63
2022/12/04 04:57:04;;;;;;;47.40;22.80;;;0.00;99.90;;;;;;5073014;28;20110;-63
2022/12/04 04:59:31;;;;;;;46.50;21.35;;;0.00;99.90;;;;;;5073115;28;20098;-63
2022/12/04 05:01:58;;;;;;;46.13;23.40;;;0.00;99.90;;;;;;5072501;28;20051;-62
2022/12/04 05:04:26;;;;;;;40.83;21.45;;;-0.10;99.90;;;;;;5071909;28;20127;-62
2022/12/04 05:06:53;;;;;;;42.33;21.60;;;-0.10;99.90;;;;;;5071744;28;20045;-62
2022/12/04 05:09:20;;;;;;;45.42;22.92;;;-0.10;99.90;;;;;;5070912;28;20044;-62
2022/12/04 05:11:47;;;;;;;46.38;23.88;;;-0.10;99.90;;;;;;5072772;28;20063;-62
2022/12/04 05:14:13;;;;;;;41.47;23.52;;;-0.10;99.90;;;;;;5071532;28;20125;-62
2022/12/04 05:16:41;;;;;;;43.75;23.67;;;-0.10;99.90;;;;;;5070719;28;20048;-62
2022/12/04 05:22:08;;;;;;;41.92;21.35;;;0.00;99.90;;;;;;5013949;28;20049;-61
2022/12/04 05:24:35;;;;;;;44.33;23.85;;;0.00;99.90;;;;;;5029749;28;20072;-62
2022/12/04 05:27:02;;;;;;;49.72;24.73;;;0.00;99.90;;;;;;5037395;28;20052;-62
2022/12/04 05:29:29;;;;;;;40.72;22.42;;;0.00;99.90;;;;;;5068715;28;20044;-62
2022/12/04 05:31:56;;;;;;;40.80;22.83;;;0.00;99.90;;;;;;5072415;28;20048;-62
2022/12/04 05:34:23;;;;;;;46.47;22.88;;;0.00;99.90;;;;;;5072203;28;20094;-62
2022/12/04 05:36:49;;;;;;;43.25;21.73;;;0.00;99.90;;;;;;5070526;28;20051;-62
2022/12/04 05:39:18;;;;;;;42.72;21.45;;;0.00;99.90;;;;;;5071238;28;20040;-62
2022/12/04 05:41:45;;;;;;;43.65;23.83;;;0.10;99.90;;;;;;5071925;28;20086;-63
2022/12/04 05:44:11;;;;;;;45.60;23.17;;;0.10;99.90;;;;;;5070285;28;20463;-63
2022/12/04 05:46:38;;;;;;;41.83;20.35;;;0.10;99.90;;;;;;5072294;28;20052;-63
2022/12/04 05:49:05;;;;;;;41.20;22.13;;;0.10;99.90;;;;;;5072000;28;20040;-63
2022/12/04 05:51:32;;;;;;;41.15;20.83;;;0.10;99.90;;;;;;5070334;28;20564;-63
2022/12/04 05:53:59;;;;;;;40.83;21.75;;;0.10;99.90;;;;;;5072170;28;20101;-63
2022/12/04 05:56:27;;;;;;;40.53;22.75;;;0.20;99.90;;;;;;5070693;28;20048;-65
2022/12/04 05:58:54;;;;;;;40.47;22.02;;;0.10;99.90;;;;;;5071610;28;20110;-63
2022/12/04 06:01:23;;;;;;;43.45;21.67;;;0.20;99.90;;;;;;5068801;28;20059;-63
2022/12/04 06:03:50;;;;;;;42.30;22.63;;;0.10;99.90;;;;;;5070854;28;20052;-63
2022/12/04 06:06:20;;;;;;;43.03;21.98;;;0.20;99.90;;;;;;5069821;28;20063;-62
2022/12/04 06:08:47;;;;;;;43.50;21.87;;;0.20;99.90;;;;;;5068818;28;20048;-62
2022/12/04 06:11:16;;;;;;;47.63;23.65;;;0.20;99.90;;;;;;5070928;28;20488;-62
2022/12/04 06:13:46;;;;;;;49.35;24.05;;;0.20;99.90;;;;;;5071373;28;20051;-63
2022/12/04 06:16:14;;;;;;;43.38;22.42;;;0.20;99.90;;;;;;5070707;28;20404;-62
2022/12/04 06:18:42;;;;;;;49.47;23.88;;;0.20;99.90;;;;;;5070378;28;20526;-62
2022/12/04 06:21:09;;;;;;;37.83;20.80;;;0.30;99.90;;;;;;5071983;28;20078;-62
2022/12/04 06:23:36;;;;;;;38.10;21.88;;;0.30;99.90;;;;;;5070295;28;20090;-62
2022/12/04 06:26:04;;;;;;;43.47;22.20;;;0.40;99.90;;;;;;5070185;28;20436;-62
2022/12/04 06:28:31;;;;;;;45.78;23.13;;;0.50;99.90;;;;;;5071948;28;20068;-62
2022/12/04 06:31:02;;;;;;;39.90;21.40;;;0.30;99.90;;;;;;5070581;28;20099;-63
2022/12/04 06:33:30;;;;;;;39.22;21.60;;;0.30;99.90;;;;;;5069831;28;20094;-62
2022/12/04 06:36:00;;;;;;;42.10;22.80;;;0.30;99.90;;;;;;5069645;28;20045;-62
2022/12/04 06:38:27;;;;;;;40.15;21.63;;;0.30;99.90;;;;;;5071699;28;20078;-63
2022/12/04 06:40:54;;;;;;;39.97;22.05;;;0.30;99.90;;;;;;5070006;28;20060;-63
2022/12/04 06:43:21;;;;;;;43.22;23.48;;;0.40;99.90;;;;;;5070533;28;20504;-63
2022/12/04 06:45:48;;;;;;;41.92;21.75;;;0.30;99.90;;;;;;5069988;28;20045;-63
2022/12/04 06:48:16;;;;;;;44.08;21.77;;;0.40;99.90;;;;;;5071094;28;20119;-63
2022/12/04 06:50:43;;;;;;;40.70;20.63;;;0.40;99.90;;;;;;5070471;28;20060;-62
2022/12/04 06:53:10;;;;;;;44.67;22.42;;;0.40;99.90;;;;;;5071489;28;20110;-61
2022/12/04 06:55:37;;;;;;;41.42;21.58;;;0.40;99.90;;;;;;5058575;28;20501;-62
2022/12/04 06:58:04;;;;;;;41.75;21.20;;;0.50;99.90;;;;;;5057115;28;20044;-63
2022/12/04 07:00:31;;;;;;;44.38;22.17;;;0.40;99.90;;;;;;5066999;28;20090;-63
2022/12/04 07:02:58;;;;;;;38.42;20.88;;;0.50;99.90;;;;;;5091326;28;20127;-62
2022/12/04 07:05:27;;;;;;;41.97;21.08;;;0.50;99.90;;;;;;5066095;28;20053;-62
2022/12/04 07:07:54;;;;;;;43.28;21.08;;;0.50;99.90;;;;;;5062930;28;20063;-62
2022/12/04 07:10:21;;;;;;;44.85;22.30;;;0.50;99.90;;;;;;5065937;28;20044;-62
2022/12/04 07:12:48;;;;;;;41.78;21.02;;;0.50;99.90;;;;;;5067673;28;20053;-62
2022/12/04 07:15:15;;;;;;;42.20;21.88;;;0.50;99.90;;;;;;5068011;28;20056;-63
2022/12/04 07:17:41;;;;;;;38.30;20.52;;;0.50;99.90;;;;;;5067136;28;20052;-63
2022/12/04 07:20:09;;;;;;;38.33;21.77;;;0.50;99.90;;;;;;5071538;28;20496;-63
2022/12/04 07:22:38;;;;;;;44.33;21.83;;;0.50;99.90;;;;;;5067297;28;20055;-63
2022/12/04 07:25:05;;;;;;;45.20;23.27;;;0.50;99.90;;;;;;5069429;28;20053;-63
2022/12/04 07:27:32;;;;;;;42.17;21.63;;;0.50;99.90;;;;;;5069288;28;20049;-63
2022/12/04 07:29:59;;;;;;;40.78;22.92;;;0.50;99.90;;;;;;5065928;28;20045;-63
2022/12/04 07:32:26;;;;;;;47.00;22.15;;;0.50;99.90;;;;;;5068899;28;20052;-63
2022/12/04 07:34:53;;;;;;;38.85;20.77;;;0.50;99.90;;;;;;5065308;28;20143;-62
2022/12/04 07:37:20;;;;;;;42.45;21.05;;;0.60;99.90;;;;;;5067547;28;20083;-62
2022/12/04 07:39:51;;;;;;;43.95;22.88;;;0.50;99.90;;;;;;5071016;28;20040;-62
2022/12/04 07:42:18;;;;;;;46.65;22.15;;;0.50;99.90;;;;;;5067971;28;20122;-62
2022/12/04 07:44:45;;;;;;;42.42;20.92;;;0.60;99.90;;;;;;5068154;28;20051;-62
2022/12/04 07:47:12;;;;;;;41.45;21.80;;;0.60;99.90;;;;;;5068823;28;20055;-62
2022/12/04 07:49:39;;;;;;;39.42;21.88;;;0.60;99.90;;;;;;5067327;28;20048;-62
2022/12/04 07:52:06;;;;;;;42.97;23.52;;;0.60;99.90;;;;;;5066566;28;20053;-62
2022/12/04 07:54:33;;;;;;;44.95;22.90;;;0.70;99.90;;;;;;5069262;28;20068;-62
2022/12/04 07:57:01;;;;;;;44.45;22.38;;;0.70;99.90;;;;;;5067210;28;20048;-62
2022/12/04 07:59:28;;;;;;;41.47;21.10;;;0.70;99.90;;;;;;5070404;28;20048;-62
2022/12/04 08:01:55;;;;;;;40.33;23.05;;;0.70;99.90;;;;;;5068231;28;20494;-62
2022/12/04 08:04:22;;;;;;;41.50;21.10;;;0.70;99.90;;;;;;5064903;28;20400;-62
2022/12/04 08:06:49;;;;;;;40.53;22.27;;;0.70;99.90;;;;;;5065819;28;20056;-62
2022/12/04 08:09:15;;;;;;;45.30;22.05;;;0.70;99.90;;;;;;5068594;28;20145;-63
2022/12/04 08:11:42;;;;;;;41.78;22.67;;;0.70;99.90;;;;;;5067164;28;20056;-62
2022/12/04 08:14:12;;;;;;;42.08;22.48;;;0.70;99.90;;;;;;5067369;28;20060;-63
2022/12/04 08:16:39;;;;;;;44.40;21.80;;;0.70;99.90;;;;;;5069421;28;20068;-62
2022/12/04 08:19:06;;;;;;;43.53;23.48;;;0.70;99.90;;;;;;5065499;28;20040;-62
2022/12/04 08:21:33;;;;;;;41.63;22.50;;;0.70;99.90;;;;;;5069477;28;20052;-62
2022/12/04 08:24:01;;;;;;;36.47;20.90;;;0.80;99.90;;;;;;5069748;28;20044;-63
2022/12/04 08:26:30;;;;;;;44.65;21.77;;;0.80;99.90;;;;;;5068978;28;20063;-62
2022/12/04 08:28:57;;;;;;;40.17;20.77;;;0.80;99.90;;;;;;5064559;28;20437;-63
2022/12/04 08:31:28;;;;;;;41.85;21.95;;;0.80;99.90;;;;;;5068335;28;20049;-63
2022/12/04 08:33:58;;;;;;;39.03;22.15;;;0.90;99.90;;;;;;5069341;28;20060;-63
2022/12/04 08:36:25;;;;;;;43.42;22.52;;;0.80;99.90;;;;;;5068121;28;20052;-62
2022/12/04 08:38:53;;;;;;;41.88;21.05;;;0.90;99.90;;;;;;5064025;28;20516;-62
2022/12/04 08:41:22;;;;;;;42.38;22.92;;;0.90;99.90;;;;;;5068849;28;20076;-63
2022/12/04 08:43:49;;;;;;;47.60;23.67;;;0.90;99.90;;;;;;5064392;28;20544;-62
2022/12/04 08:46:17;;;;;;;43.60;22.55;;;0.90;99.90;;;;;;5067257;28;20067;-62
2022/12/04 08:48:46;;;;;;;40.53;21.45;;;1.00;99.90;;;;;;5067310;28;20056;-63
2022/12/04 08:51:15;;;;;;;37.63;20.98;;;0.90;99.90;;;;;;5093218;28;20059;-62
2022/12/04 08:53:42;;;;;;;49.38;23.25;;;1.00;99.90;;;;;;5069514;28;20420;-62
2022/12/04 08:56:09;;;;;;;38.88;19.77;;;1.00;99.90;;;;;;5066445;28;20114;-62
2022/12/04 08:58:36;;;;;;;42.88;21.83;;;1.40;99.90;;;;;;5068613;28;20424;-63
2022/12/04 09:01:07;;;;;;;36.78;19.80;;;1.00;99.90;;;;;;5066564;28;20679;-63
2022/12/04 09:03:35;;;;;;;43.40;22.27;;;1.10;99.90;;;;;;5067971;28;20051;-62
2022/12/04 09:06:05;;;;;;;37.47;20.50;;;1.10;99.90;;;;;;5067688;28;20051;-64
2022/12/04 09:08:33;;;;;;;41.50;21.13;;;1.10;99.90;;;;;;5092025;28;20099;-63
2022/12/04 09:11:04;;;;;;;38.30;20.65;;;1.20;99.90;;;;;;5067519;28;20052;-64
2022/12/04 09:13:31;;;;;;;;;;;1.40;99.90;;;;;;5067589;28;20041;-63
2022/12/04 09:15:58;;;;;;;35.30;19.40;;;1.30;99.90;;;;;;5066639;28;20384;-63
2022/12/04 09:18:25;;;;;;;35.75;19.20;;;1.30;99.90;;;;;;5064962;28;20047;-63
2022/12/04 09:20:56;;;;;;;35.85;19.52;;;1.30;99.90;;;;;;5063910;28;20059;-63
2022/12/04 09:23:25;;;;;;;35.33;19.25;;;1.30;99.90;;;;;;5069270;28;20144;-63
2022/12/04 09:25:52;;;;;;;38.50;20.27;;;1.40;99.90;;;;;;5064816;28;20504;-64
2022/12/04 09:28:19;;;;;;;36.60;19.42;;;1.40;99.90;;;;;;5068196;28;20142;-63
2022/12/04 09:30:46;;;;;;;35.67;19.13;;;1.70;99.90;;;;;;5063847;28;20377;-63
2022/12/04 09:33:13;;;;;;;35.50;18.92;;;1.50;99.90;;;;;;5065145;28;20060;-64
2022/12/04 09:35:40;;;;;;;33.28;18.10;;;1.50;99.90;;;;;;5069670;28;20127;-63
2022/12/04 09:38:07;;;;;;;34.92;18.25;;;1.60;99.90;;;;;;5066514;28;20052;-63
2022/12/04 09:40:46;;;;;;;31.58;16.45;;;1.60;99.90;;;;;;5068591;28;20049;-63
2022/12/04 09:43:23;;;;;;;29.97;17.00;;;1.70;99.90;;;;;;5064150;28;20161;-63
2022/12/04 09:45:54;;;;;;;33.53;18.00;;;1.70;99.90;;;;;;5093771;28;20044;-64
2022/12/04 09:48:22;;;;;;;;;;;1.80;99.90;;;;;;5095674;28;20049;-64
2022/12/04 09:50:50;;;;;;;28.65;16.23;;;1.80;99.90;;;;;;5064890;28;19924;-64
2022/12/04 09:53:20;;;;;;;30.40;17.38;;;1.90;99.90;;;;;;5065936;28;20427;-64
2022/12/04 09:55:54;;;;;;;29.33;16.02;;;1.90;99.90;;;;;;5068087;28;20520;-63
2022/12/04 09:58:27;;;;;;;31.45;16.75;;;2.00;99.90;;;;;;5067504;28;20051;-64
2022/12/04 10:00:56;;;;;;;28.25;15.30;;;2.00;99.90;;;;;;5066982;28;20049;-64
2022/12/04 10:03:27;;;;;;;29.23;15.68;;;2.10;99.90;;;;;;5061309;28;20131;-64
2022/12/04 10:06:02;;;;;;;27.77;14.60;;;2.10;99.90;;;;;;5064938;28;20098;-64
2022/12/04 10:08:31;;;;;;;26.92;15.88;;;2.10;99.90;;;;;;5065690;28;20057;-63
2022/12/04 10:11:11;;;;;;;31.08;17.20;;;2.20;99.90;;;;;;5067280;28;20045;-63
2022/12/04 10:14:03;;;;;;;27.75;15.40;;;2.20;99.90;;;;;;5067833;28;20078;-63
2022/12/04 10:16:41;;;;;;;28.70;14.90;;;2.20;99.90;;;;;;5064151;28;20068;-65
2022/12/04 10:19:16;;;;;;;29.17;15.95;;;2.20;99.90;;;;;;5065876;28;20673;-63
2022/12/04 10:21:57;;;;;;;25.45;15.35;;;2.20;99.90;;;;;;5063872;28;20562;-63
2022/12/04 10:24:30;;;;;;;;;;;2.20;99.90;;;;;;5062674;28;20052;-63
2022/12/04 10:27:02;;;;;;;25.55;14.45;;;2.30;99.90;;;;;;5063789;28;19924;-63
2022/12/04 10:29:33;;;;;;;26.88;13.93;;;2.20;99.90;;;;;;5062509;28;20095;-64
2022/12/04 10:32:03;;;;;;;;;;;2.30;99.90;;;;;;5065975;28;20075;-64
2022/12/04 10:34:32;;;;;;;27.25;14.77;;;2.30;99.90;;;;;;5065465;28;19921;-64
2022/12/04 10:37:01;;;;;;;25.60;13.13;;;2.30;99.90;;;;;;5064308;28;20095;-63
2022/12/04 10:39:34;;;;;;;26.63;15.25;;;2.30;99.90;;;;;;5068729;28;20060;-64
2022/12/04 10:42:09;;;;;;;27.33;14.63;;;2.30;99.90;;;;;;5064066;28;20123;-64
2022/12/04 10:44:36;;;;;;;28.67;14.93;;;2.40;99.90;;;;;;5061167;28;20439;-64
2022/12/04 10:47:04;;;;;;;27.10;14.10;;;2.40;99.90;;;;;;5067554;28;20051;-64
2022/12/04 10:49:36;;;;;;;23.30;12.75;;;2.40;99.90;;;;;;5068437;28;20051;-64
2022/12/04 10:52:03;;;;;;;24.17;14.02;;;2.40;99.90;;;;;;5067250;28;20508;-66
2022/12/04 10:54:33;;;;;;;20.98;13.32;;;2.50;99.90;;;;;;5071442;28;20170;-61
2022/12/04 10:57:03;;;;;;;23.33;12.60;;;2.50;99.90;;;;;;5069264;28;20053;-61
2022/12/04 10:59:30;;;;;;;23.63;12.17;;;2.50;99.90;;;;;;5071739;28;20049;-61
2022/12/04 11:02:03;;;;;;;21.23;12.15;;;2.50;99.90;;;;;;5096666;28;20310;-61
2022/12/04 11:04:32;;;;;;;22.73;12.77;;;2.60;99.90;;;;;;5067635;28;20054;-61
2022/12/04 11:07:04;;;;;;;19.23;12.20;;;2.60;99.90;;;;;;5066730;28;20473;-62
2022/12/04 11:09:32;;;;;;;20.15;11.38;;;2.60;99.90;;;;;;5067042;28;20119;-61
2022/12/04 11:12:08;;;;;;;21.38;12.23;;;2.60;99.90;;;;;;5066727;28;20052;-60
2022/12/04 11:14:35;;;;;;;19.65;12.10;;;2.60;99.90;;;;;;5068795;28;20048;-61
2022/12/04 11:17:05;;;;;;;20.45;11.43;;;2.60;99.90;;;;;;5065416;28;20051;-61
2022/12/04 11:19:35;;;;;;;19.30;12.33;;;2.60;99.90;;;;;;5068449;28;20044;-61
2022/12/04 11:22:05;;;;;;;20.08;11.50;;;2.70;99.90;;;;;;5066584;28;20045;-61
2022/12/04 11:24:33;;;;;;;;;;;2.70;99.90;;;;;;5072428;28;20045;-62
2022/12/04 11:27:01;;;;;;;20.17;11.00;;;3.10;99.90;;;;;;5067477;28;19920;-61
2022/12/04 11:29:35;;;;;;;20.70;11.48;;;2.60;99.90;;;;;;5068429;28;20617;-61
2022/12/04 11:32:03;;;;;;;20.48;10.27;;;2.70;99.90;;;;;;5067523;28;20071;-61
2022/12/04 11:34:35;;;;;;;15.98;10.50;;;2.70;99.90;;;;;;5067292;28;20132;-62
2022/12/04 11:37:02;;;;;;;19.42;10.55;;;2.70;99.90;;;;;;5067625;28;20052;-63
2022/12/04 11:39:34;;;;;;;19.88;11.75;;;2.70;99.90;;;;;;5071111;28;20357;-62
2022/12/04 11:42:03;;;;;;;18.45;10.48;;;2.60;99.90;;;;;;5067905;28;20041;-62
2022/12/04 11:44:34;;;;;;;18.40;11.02;;;2.70;99.90;;;;;;5067056;28;20049;-62
2022/12/04 11:47:02;;;;;;;;;;;2.60;99.90;;;;;;5068554;28;20419;-63
2022/12/04 11:49:31;;;;;;;17.80;11.05;;;2.60;99.90;;;;;;5069166;28;19947;-62
2022/12/04 11:52:11;;;;;;;19.58;10.82;;;2.60;99.90;;;;;;5066893;28;20068;-64
2022/12/04 11:54:43;;;;;;;;;;;2.60;99.90;;;;;;5071464;28;20056;-63
2022/12/04 11:57:18;;;;;;;20.55;11.55;;;2.60;99.90;;;;;;5065589;28;19920;-62
2022/12/04 12:00:11;;;;;;;20.92;11.50;;;2.60;99.90;;;;;;5067719;28;20052;-62
2022/12/04 12:03:04;;;;;;;21.63;12.30;;;2.60;99.90;;;;;;5061222;28;20052;-63
2022/12/04 12:05:45;;;;;;;21.02;12.48;;;2.50;99.90;;;;;;5068403;28;20056;-62
2022/12/04 12:08:23;;;;;;;21.27;11.80;;;2.50;99.90;;;;;;5069657;28;20408;-63
2022/12/04 12:10:58;;;;;;;18.55;11.13;;;2.60;99.90;;;;;;5067948;28;20562;-62
2022/12/04 12:13:33;;;;;;;19.63;11.82;;;2.60;99.90;;;;;;5067775;28;20040;-61
2022/12/04 12:16:12;;;;;;;19.85;11.80;;;2.70;99.90;;;;;;5068827;28;20859;-62
2022/12/04 12:19:07;;;;;;;20.65;11.70;;;2.60;99.90;;;;;;5066399;28;20835;-61
2022/12/04 12:21:42;;;;;;;22.02;12.32;;;2.70;99.90;;;;;;5066344;28;20040;-61
2022/12/04 12:24:26;;;;;;;19.10;10.85;;;2.90;99.90;;;;;;5065700;28;20048;-61
2022/12/04 12:27:03;;;;;;;21.90;11.30;;;2.70;99.90;;;;;;5066397;28;20052;-61
2022/12/04 12:29:54;;;;;;;20.92;12.05;;;2.70;99.90;;;;;;5063994;28;20061;-61
2022/12/04 12:32:49;;;;;;;20.65;11.35;;;2.70;99.90;;;;;;5065578;28;20053;-62
2022/12/04 12:35:21;;;;;;;20.52;12.10;;;2.70;99.90;;;;;;5066367;28;20147;-61
2022/12/04 12:37:51;;;;;;;22.13;12.43;;;2.70;99.90;;;;;;5065726;28;20053;-62
2022/12/04 12:40:28;;;;;;;19.73;11.53;;;2.70;99.90;;;;;;5070614;28;20515;-62
2022/12/04 12:43:01;;;;;;;22.25;11.65;;;2.70;99.90;;;;;;5069200;28;20283;-62
2022/12/04 12:45:36;;;;;;;21.08;11.75;;;2.60;99.90;;;;;;5065352;28;20548;-61
2022/12/04 12:48:13;;;;;;;18.85;11.48;;;2.60;99.90;;;;;;5068173;28;20626;-61
2022/12/04 12:50:44;;;;;;;21.17;11.75;;;2.70;99.90;;;;;;5064361;28;20408;-61
2022/12/04 12:53:16;;;;;;;21.55;12.63;;;2.70;99.90;;;;;;5065913;28;20149;-61
2022/12/04 12:55:47;;;;;;;19.52;12.23;;;2.70;99.90;;;;;;5069917;28;20060;-61
2022/12/04 12:58:18;;;;;;;26.35;13.38;;;2.70;99.90;;;;;;5070622;28;20044;-62
2022/12/04 13:00:51;;;;;;;19.58;11.60;;;2.70;99.90;;;;;;5067047;28;20486;-62
2022/12/04 13:03:28;;;;;;;19.92;11.98;;;2.70;99.90;;;;;;5070648;28;20048;-62
2022/12/04 13:06:00;;;;;;;24.13;12.82;;;2.70;99.90;;;;;;5065687;28;20103;-62